Hovedside
METAR-TAF:

METAR-TAF

Lufthavner :

Kuressaare lufthavn

Kuressaare, Estland

breddegrad: 58-13-48N, lengdegrad: 022-30-34E, høyde over havet: 4 m

Gjeldene værobservasjon

Denne rapporten ble laget for 27 minutter siden, klokken 21:50 UTC
Vind 8 kt fra Vest-sørvest, skiftende mellom Sør-sørvest og Vest-nordvest
Temperatur 3°C
Luftfuktighet 93%
Trykk 1009 hPa
Sikt 10 km eller mer

METAR: EEKE 242150Z AUTO 25008KT 200V290 9999NDV NSC 03/02 Q1009

Tid: 00:17 (22:17 UTC)

Varsel

Denne rapporten ble laget for 7 timer og 17 minutter siden, klokken 15:00 UTC
Varsel gyldig fra 24. klokken 16 UTC til 24. klokken 22 UTC
Vind 14 kt fra Vest-sørvest med vindkast opp mot 24 kt
Sikt 10 km eller mer
ingen skyer under 1500 m og ingen bygeskyer

TAF: EEKE 241500Z 2416/2422 25014G24KT CAVOK

Værobservasjoner og værvarsel for over 4000 flyplasser (METAR- og TAF-rapporter).

Tilgjengelige stasjoner er representert av de røde og gule prikkene på kartet.

Hold musepekeren over prikken for å se navnet på stasjonen.

Klikk så for å se værobservasjoner og -varsler.

For å forandre kartet kan du klikke på den grønne knappen med svart kryss for å zoome inn, på den grønne knappen med strek for å zoome ut, eller på de grønne pilene for å se tilstøtende kart.


METAR-TAF: